Time;durP1;ratioP1;P1;durP2;ratioP2;P2;SDS_P1;SDS_P2;PMS_P1;PMS_P2;Temp;Humidity;BMP_temperature;BMP_pressure;BME280_temperature;BME280_humidity;BME280_pressure;Samples;Min_cycle;Max_cycle;Signal;HPM_P1;HPM_P2
2022/02/17 00:02:23;;;;;;;0.60;0.57;;;10.10;99.90;;;;;;5008605;28;20494;-67
2022/02/17 00:04:48;;;;;;;1.13;1.13;;;10.10;99.90;;;;;;5005263;28;20690;-67
2022/02/17 00:07:14;;;;;;;0.60;0.60;;;10.10;99.90;;;;;;5005250;28;20077;-67
2022/02/17 00:09:40;;;;;;;0.70;0.70;;;10.20;99.90;;;;;;5007804;28;20052;-67
2022/02/17 00:12:06;;;;;;;0.80;0.80;;;10.10;99.90;;;;;;5007685;28;20030;-67
2022/02/17 00:14:32;;;;;;;0.73;0.70;;;10.10;99.90;;;;;;5011234;28;20044;-67
2022/02/17 00:16:57;;;;;;;0.50;0.50;;;10.20;99.90;;;;;;5010581;28;20041;-67
2022/02/17 00:19:23;;;;;;;0.50;0.50;;;10.20;99.90;;;;;;5009905;28;20390;-67
2022/02/17 00:21:49;;;;;;;0.60;0.60;;;10.20;99.90;;;;;;5009948;28;20142;-67
2022/02/17 00:24:16;;;;;;;0.55;0.55;;;10.30;99.90;;;;;;5007627;28;20025;-67
2022/02/17 00:26:42;;;;;;;0.52;0.52;;;10.30;99.90;;;;;;5001589;28;20065;-67
2022/02/17 00:29:08;;;;;;;0.70;0.70;;;10.30;99.90;;;;;;5009378;28;20045;-67
2022/02/17 00:31:34;;;;;;;0.70;0.70;;;10.30;99.90;;;;;;5023133;28;20424;-67
2022/02/17 00:33:59;;;;;;;0.70;0.70;;;10.30;99.90;;;;;;5010211;28;20022;-67
2022/02/17 00:36:25;;;;;;;0.90;0.80;;;10.30;99.90;;;;;;5010532;28;20038;-67
2022/02/17 00:38:51;;;;;;;0.50;0.50;;;10.30;99.90;;;;;;5009985;28;20030;-67
2022/02/17 00:41:18;;;;;;;0.60;0.60;;;10.30;99.90;;;;;;5009760;28;20353;-68
2022/02/17 00:43:45;;;;;;;0.60;0.55;;;10.40;99.90;;;;;;5005249;28;20448;-67
2022/02/17 00:46:11;;;;;;;0.80;0.80;;;10.40;99.90;;;;;;5010574;28;20037;-67
2022/02/17 00:48:36;;;;;;;0.50;0.50;;;10.40;99.90;;;;;;5006114;28;20044;-67
2022/02/17 00:51:02;;;;;;;0.50;0.50;;;10.40;99.90;;;;;;5005638;28;20166;-67
2022/02/17 00:53:28;;;;;;;0.60;0.60;;;10.40;99.90;;;;;;4997725;28;20632;-67
2022/02/17 00:55:54;;;;;;;0.55;0.55;;;10.40;99.90;;;;;;5003327;28;20030;-67
2022/02/17 00:58:19;;;;;;;0.57;0.52;;;10.40;99.90;;;;;;5009413;28;20091;-67
2022/02/17 01:00:45;;;;;;;0.90;0.90;;;10.50;99.90;;;;;;5004638;28;20038;-67
2022/02/17 01:03:11;;;;;;;0.70;0.70;;;10.50;99.90;;;;;;5006222;28;20397;-67
2022/02/17 01:05:36;;;;;;;1.13;1.02;;;10.50;99.90;;;;;;5008831;28;20034;-68
2022/02/17 01:08:03;;;;;;;0.68;0.68;;;10.50;99.90;;;;;;5007970;28;20042;-68
2022/02/17 01:10:29;;;;;;;0.47;0.47;;;10.50;99.90;;;;;;5006340;28;20049;-67
2022/02/17 01:12:54;;;;;;;0.50;0.50;;;10.50;99.90;;;;;;5001228;28;20036;-67
2022/02/17 01:15:20;;;;;;;0.50;0.50;;;10.50;99.90;;;;;;5009007;28;20457;-67
2022/02/17 01:17:46;;;;;;;0.50;0.50;;;10.50;99.90;;;;;;5007057;28;20041;-68
2022/02/17 01:20:12;;;;;;;1.45;0.80;;;10.50;99.90;;;;;;5008910;28;20044;-68
2022/02/17 01:22:38;;;;;;;0.45;0.45;;;10.50;99.90;;;;;;5005059;28;20029;-67
2022/02/17 01:25:04;;;;;;;0.50;0.50;;;10.50;99.90;;;;;;5021314;28;20661;-67
2022/02/17 01:27:31;;;;;;;0.82;0.82;;;10.50;99.90;;;;;;5005958;28;20046;-68
2022/02/17 01:29:57;;;;;;;0.55;0.52;;;10.50;99.90;;;;;;5010855;28;20037;-67
2022/02/17 01:32:23;;;;;;;0.47;0.47;;;10.50;99.90;;;;;;5006409;28;20587;-67
2022/02/17 01:34:49;;;;;;;0.50;0.50;;;10.50;99.90;;;;;;5005517;28;20034;-68
2022/02/17 01:37:14;;;;;;;0.52;0.52;;;10.60;99.90;;;;;;5010700;28;20033;-68
2022/02/17 01:39:40;;;;;;;0.70;0.70;;;10.50;99.90;;;;;;5010225;28;20037;-68
2022/02/17 01:42:09;;;;;;;0.47;0.47;;;10.50;99.90;;;;;;5007443;28;20026;-68
2022/02/17 01:44:35;;;;;;;0.47;0.47;;;10.50;99.90;;;;;;5003030;28;20048;-68
2022/02/17 01:47:09;;;;;;;0.40;0.40;;;10.50;99.90;;;;;;5009269;28;20593;-67
2022/02/17 01:49:35;;;;;;;0.57;0.57;;;10.60;99.90;;;;;;5003743;28;20057;-67
2022/02/17 01:52:00;;;;;;;0.63;0.43;;;10.60;99.90;;;;;;5007282;28;20618;-67
2022/02/17 01:54:26;;;;;;;0.60;0.60;;;10.60;99.90;;;;;;5007555;28;20361;-68
2022/02/17 01:56:52;;;;;;;0.50;0.50;;;10.60;99.90;;;;;;4998495;28;20421;-68
2022/02/17 01:59:18;;;;;;;0.40;0.40;;;10.70;99.90;;;;;;5007085;28;20109;-67
2022/02/17 02:01:43;;;;;;;0.50;0.50;;;10.70;99.90;;;;;;5005678;28;20121;-68
2022/02/17 02:04:09;;;;;;;0.30;0.30;;;10.60;99.90;;;;;;5007134;28;20421;-67
2022/02/17 02:06:35;;;;;;;0.60;0.60;;;10.60;99.90;;;;;;5005751;28;20037;-67
2022/02/17 02:09:01;;;;;;;0.50;0.50;;;10.60;99.90;;;;;;5005096;28;20049;-67
2022/02/17 02:11:28;;;;;;;0.47;0.47;;;10.60;99.90;;;;;;5007589;28;20449;-67
2022/02/17 02:13:53;;;;;;;0.30;0.30;;;10.70;99.90;;;;;;5006478;28;20363;-67
2022/02/17 02:16:19;;;;;;;0.43;0.43;;;10.70;99.90;;;;;;5013471;28;20044;-67
2022/02/17 02:18:45;;;;;;;0.52;0.52;;;10.70;99.90;;;;;;5012886;28;20030;-66
2022/02/17 02:21:11;;;;;;;0.50;0.50;;;10.70;99.90;;;;;;5005617;28;20036;-66
2022/02/17 02:23:37;;;;;;;0.50;0.50;;;10.70;99.90;;;;;;5010714;28;20033;-66
2022/02/17 02:26:03;;;;;;;0.60;0.60;;;10.80;99.90;;;;;;5008999;28;20034;-67
2022/02/17 02:28:31;;;;;;;0.43;0.43;;;10.80;99.90;;;;;;5010887;28;20034;-67
2022/02/17 02:30:57;;;;;;;0.45;0.45;;;10.90;99.90;;;;;;5010551;28;20204;-67
2022/02/17 02:33:24;;;;;;;0.40;0.40;;;10.80;99.90;;;;;;5010441;28;20030;-67
2022/02/17 02:35:51;;;;;;;0.45;0.45;;;10.80;99.90;;;;;;4999958;28;20026;-67
2022/02/17 02:38:17;;;;;;;0.73;0.38;;;10.80;99.90;;;;;;5014455;28;20030;-67
2022/02/17 02:40:43;;;;;;;0.40;0.40;;;10.80;99.90;;;;;;5012667;28;20025;-67
2022/02/17 02:43:09;;;;;;;1.27;0.38;;;10.90;99.90;;;;;;5011702;28;20362;-67
2022/02/17 02:45:35;;;;;;;0.30;0.30;;;10.90;99.90;;;;;;5004890;28;20061;-67
2022/02/17 02:48:08;;;;;;;0.40;0.40;;;11.00;99.90;;;;;;5013424;28;20147;-67
2022/02/17 02:50:35;;;;;;;0.38;0.38;;;10.90;99.90;;;;;;5008105;28;20042;-67
2022/02/17 02:53:02;;;;;;;0.40;0.40;;;11.00;99.90;;;;;;5011870;28;20178;-67
2022/02/17 02:55:27;;;;;;;0.30;0.30;;;11.00;99.90;;;;;;5012039;28;20070;-67
2022/02/17 02:57:53;;;;;;;0.40;0.40;;;11.00;99.90;;;;;;5002280;28;20117;-67
2022/02/17 03:00:19;;;;;;;0.40;0.40;;;10.90;99.90;;;;;;5014038;28;20033;-67
2022/02/17 03:02:45;;;;;;;0.20;0.20;;;10.90;99.90;;;;;;5007148;28;20037;-67
2022/02/17 03:05:13;;;;;;;1.73;0.32;;;10.90;99.90;;;;;;5010102;28;20433;-67
2022/02/17 03:07:40;;;;;;;0.30;0.30;;;10.90;99.90;;;;;;5011350;28;20030;-67
2022/02/17 03:10:06;;;;;;;0.30;0.30;;;11.00;99.90;;;;;;5006071;28;20029;-67
2022/02/17 03:12:33;;;;;;;0.30;0.30;;;10.90;99.90;;;;;;5007712;28;20030;-67
2022/02/17 03:14:59;;;;;;;0.57;0.50;;;11.00;99.90;;;;;;5007703;28;20161;-67
2022/02/17 03:17:25;;;;;;;0.40;0.40;;;11.00;99.90;;;;;;5013028;28;20747;-67
2022/02/17 03:19:50;;;;;;;0.40;0.40;;;11.10;99.90;;;;;;5012254;28;20044;-67
2022/02/17 03:22:16;;;;;;;0.30;0.30;;;11.10;99.90;;;;;;5011122;28;20038;-67
2022/02/17 03:24:42;;;;;;;0.30;0.30;;;11.10;99.90;;;;;;5007094;28;20026;-67
2022/02/17 03:27:08;;;;;;;0.20;0.20;;;11.10;99.90;;;;;;4999717;28;20100;-67
2022/02/17 03:29:33;;;;;;;0.30;0.30;;;11.20;99.90;;;;;;5008636;28;20370;-67
2022/02/17 03:31:59;;;;;;;0.30;0.30;;;11.30;99.90;;;;;;5009637;28;20045;-67
2022/02/17 03:34:25;;;;;;;0.35;0.35;;;11.20;99.90;;;;;;5011876;28;20029;-67
2022/02/17 03:36:51;;;;;;;0.30;0.30;;;11.10;99.90;;;;;;5006228;28;20065;-67
2022/02/17 03:39:17;;;;;;;0.30;0.30;;;11.10;99.90;;;;;;5004711;28;20381;-67
2022/02/17 03:41:42;;;;;;;0.30;0.30;;;11.10;99.90;;;;;;5005913;28;20038;-67
2022/02/17 03:44:08;;;;;;;0.85;0.30;;;11.20;99.90;;;;;;5005207;28;20037;-67
2022/02/17 03:46:34;;;;;;;0.30;0.30;;;11.10;99.90;;;;;;5009689;28;20037;-67
2022/02/17 03:49:00;;;;;;;0.30;0.30;;;11.10;99.90;;;;;;5006859;28;20049;-67
2022/02/17 03:51:25;;;;;;;0.30;0.20;;;11.10;99.90;;;;;;5010499;28;20084;-67
2022/02/17 03:53:51;;;;;;;0.28;0.28;;;11.10;99.90;;;;;;4999690;28;20472;-67
2022/02/17 03:56:17;;;;;;;0.30;0.30;;;11.10;99.90;;;;;;5007555;28;20038;-67
2022/02/17 03:59:00;;;;;;;0.52;0.30;;;11.20;99.90;;;;;;5004010;28;20392;-68
2022/02/17 04:01:27;;;;;;;0.20;0.20;;;11.10;99.90;;;;;;5006830;28;20058;-67
2022/02/17 04:03:52;;;;;;;0.20;0.20;;;11.10;99.90;;;;;;5006141;28;20401;-67
2022/02/17 04:06:18;;;;;;;0.20;0.20;;;11.10;99.90;;;;;;5007438;28;20026;-67
2022/02/17 04:08:43;;;;;;;0.20;0.20;;;11.10;99.90;;;;;;5011616;28;20471;-67
2022/02/17 04:11:09;;;;;;;0.38;0.30;;;11.20;99.90;;;;;;5003173;28;20036;-67
2022/02/17 04:13:35;;;;;;;0.35;0.20;;;11.20;99.90;;;;;;4995926;28;20057;-67
2022/02/17 04:16:01;;;;;;;1.15;0.40;;;11.20;99.90;;;;;;5005074;28;20040;-67
2022/02/17 04:18:27;;;;;;;0.20;0.20;;;11.20;99.90;;;;;;5011452;28;20040;-67
2022/02/17 04:20:54;;;;;;;0.20;0.20;;;11.20;99.90;;;;;;5008920;28;20030;-68
2022/02/17 04:23:20;;;;;;;0.20;0.20;;;11.20;99.90;;;;;;5001692;28;20036;-67
2022/02/17 04:25:45;;;;;;;0.98;0.40;;;11.20;99.90;;;;;;5001083;28;20417;-67
2022/02/17 04:28:11;;;;;;;0.30;0.30;;;11.40;99.90;;;;;;5009993;28;20053;-67
2022/02/17 04:30:36;;;;;;;0.52;0.52;;;11.20;99.90;;;;;;5006421;28;20796;-67
2022/02/17 04:33:03;;;;;;;0.30;0.30;;;11.20;99.90;;;;;;5008992;28;20062;-67
2022/02/17 04:35:29;;;;;;;1.75;0.50;;;11.20;99.90;;;;;;5009397;28;20489;-67
2022/02/17 04:37:55;;;;;;;0.90;0.30;;;11.30;99.90;;;;;;5008428;28;20041;-67
2022/02/17 04:42:17;;;;;;;0.28;0.28;;;11.30;99.90;;;;;;5011500;28;20072;-67
2022/02/17 04:43:06;;;;;;;0.43;0.30;;;11.20;99.90;;;;;;5011616;28;20042;-67
2022/02/17 04:45:32;;;;;;;0.20;0.20;;;11.30;99.90;;;;;;5006708;28;20033;-67
2022/02/17 04:47:58;;;;;;;1.25;0.43;;;11.20;99.90;;;;;;5006223;28;20037;-67
2022/02/17 04:50:24;;;;;;;0.30;0.30;;;11.10;99.90;;;;;;5001599;28;20159;-67
2022/02/17 04:52:50;;;;;;;0.30;0.30;;;11.10;99.90;;;;;;5008681;28;20036;-67
2022/02/17 04:55:16;;;;;;;0.30;0.30;;;11.20;99.90;;;;;;5004924;28;20037;-67
2022/02/17 04:57:41;;;;;;;0.52;0.20;;;11.10;99.90;;;;;;5009956;28;20049;-67
2022/02/17 05:00:08;;;;;;;0.38;0.30;;;11.10;99.90;;;;;;5010750;28;20037;-67
2022/02/17 05:02:36;;;;;;;0.95;0.32;;;11.20;99.90;;;;;;5007005;28;20057;-67
2022/02/17 05:05:02;;;;;;;0.30;0.30;;;11.20;99.90;;;;;;5002862;28;20026;-67
2022/02/17 05:07:27;;;;;;;0.30;0.30;;;11.20;99.90;;;;;;5005429;28;20099;-67
2022/02/17 05:09:53;;;;;;;0.30;0.30;;;11.20;99.90;;;;;;5010059;28;20030;-67
2022/02/17 05:12:19;;;;;;;0.20;0.20;;;11.20;99.90;;;;;;5005864;28;20100;-67
2022/02/17 05:14:44;;;;;;;0.30;0.30;;;11.30;99.90;;;;;;5005104;28;20030;-67
2022/02/17 05:17:10;;;;;;;0.20;0.20;;;11.30;99.90;;;;;;5007272;28;20033;-67
2022/02/17 05:19:36;;;;;;;0.20;0.20;;;11.20;99.90;;;;;;5010911;28;20168;-67
2022/02/17 05:22:02;;;;;;;0.75;0.30;;;11.40;99.90;;;;;;5005842;28;20030;-67
2022/02/17 05:24:28;;;;;;;0.30;0.30;;;11.40;99.90;;;;;;5008779;28;20160;-67
2022/02/17 05:26:54;;;;;;;0.30;0.30;;;11.30;99.90;;;;;;5009017;28;20564;-67
2022/02/17 05:29:20;;;;;;;0.20;0.20;;;11.30;99.90;;;;;;5010543;28;20119;-67
2022/02/17 05:31:45;;;;;;;0.20;0.20;;;11.30;99.90;;;;;;5010050;28;20057;-67
2022/02/17 05:34:11;;;;;;;0.30;0.30;;;11.20;99.90;;;;;;4998896;28;20485;-67
2022/02/17 05:36:37;;;;;;;0.22;0.22;;;11.20;99.90;;;;;;5007786;28;20030;-67
2022/02/17 05:39:03;;;;;;;0.25;0.25;;;11.10;99.90;;;;;;5011043;28;20034;-67
2022/02/17 05:41:29;;;;;;;0.20;0.20;;;11.20;99.90;;;;;;5006390;28;20056;-67
2022/02/17 05:43:55;;;;;;;0.20;0.20;;;11.20;99.90;;;;;;5008197;28;20469;-67
2022/02/17 05:46:20;;;;;;;0.30;0.30;;;11.20;99.90;;;;;;5007769;28;20042;-67
2022/02/17 05:48:46;;;;;;;0.22;0.22;;;11.20;99.90;;;;;;5000929;28;20117;-67
2022/02/17 05:51:12;;;;;;;0.65;0.40;;;11.10;99.90;;;;;;5002986;28;20037;-67
2022/02/17 05:53:37;;;;;;;1.88;0.30;;;11.10;99.90;;;;;;5008511;28;20029;-67
2022/02/17 05:56:03;;;;;;;0.20;0.20;;;11.10;99.90;;;;;;5005312;28;20370;-67
2022/02/17 05:58:29;;;;;;;0.30;0.30;;;11.10;99.90;;;;;;5005273;28;20042;-67
2022/02/17 06:00:54;;;;;;;0.28;0.28;;;11.10;99.90;;;;;;5006255;28;20049;-68
2022/02/17 06:03:20;;;;;;;0.22;0.22;;;11.10;99.90;;;;;;5001445;28;20092;-67
2022/02/17 06:05:46;;;;;;;0.30;0.30;;;11.20;99.90;;;;;;5005522;28;20053;-67
2022/02/17 06:08:11;;;;;;;0.20;0.20;;;11.10;99.90;;;;;;5003154;28;20056;-67
2022/02/17 06:10:37;;;;;;;0.20;0.20;;;11.10;99.90;;;;;;5008122;28;20029;-67
2022/02/17 06:13:03;;;;;;;0.30;0.30;;;11.10;99.90;;;;;;5006365;28;20105;-67
2022/02/17 06:15:28;;;;;;;1.80;1.30;;;11.10;99.90;;;;;;5005925;28;20408;-67
2022/02/17 06:17:54;;;;;;;0.20;0.20;;;11.10;99.90;;;;;;5006155;28;20049;-67
2022/02/17 06:20:20;;;;;;;1.55;0.30;;;11.20;99.90;;;;;;5006665;28;20121;-67
2022/02/17 06:22:48;;;;;;;0.20;0.20;;;11.10;99.90;;;;;;5002099;28;20042;-67
2022/02/17 06:25:16;;;;;;;0.20;0.20;;;11.10;99.90;;;;;;5002450;28;20033;-67
2022/02/17 06:27:41;;;;;;;0.30;0.30;;;11.20;99.90;;;;;;5004378;28;20424;-67
2022/02/17 06:30:08;;;;;;;0.98;0.30;;;11.20;99.90;;;;;;5008318;28;20046;-67
2022/02/17 06:32:33;;;;;;;0.20;0.20;;;11.20;99.90;;;;;;5000992;28;20046;-67
2022/02/17 06:34:59;;;;;;;0.30;0.30;;;11.20;99.90;;;;;;5004396;28;20026;-67
2022/02/17 06:37:25;;;;;;;0.20;0.20;;;11.20;99.90;;;;;;5002586;28;20087;-67
2022/02/17 06:39:50;;;;;;;0.20;0.20;;;11.20;99.90;;;;;;5001665;28;20141;-67
2022/02/17 06:42:16;;;;;;;0.40;0.40;;;11.20;99.90;;;;;;5002133;28;20034;-67
2022/02/17 06:44:41;;;;;;;0.50;0.50;;;11.30;99.90;;;;;;5001614;28;20037;-67
2022/02/17 06:47:07;;;;;;;0.30;0.30;;;11.30;99.90;;;;;;5002175;28;20446;-67
2022/02/17 06:49:34;;;;;;;0.30;0.30;;;11.30;99.90;;;;;;5005736;28;20148;-67
2022/02/17 06:52:01;;;;;;;0.30;0.30;;;11.30;99.90;;;;;;4995060;28;20030;-67
2022/02/17 06:54:26;;;;;;;0.30;0.30;;;11.30;99.90;;;;;;5002690;28;20453;-67
2022/02/17 06:56:52;;;;;;;0.80;0.55;;;11.30;99.90;;;;;;5006381;28;20030;-67
2022/02/17 06:59:18;;;;;;;0.30;0.30;;;11.20;99.90;;;;;;5009114;28;20030;-67
2022/02/17 07:01:43;;;;;;;0.40;0.40;;;11.10;99.90;;;;;;5001368;28;20040;-67
2022/02/17 07:04:10;;;;;;;0.30;0.30;;;11.20;99.90;;;;;;5006464;28;20029;-68
2022/02/17 07:06:36;;;;;;;1.65;0.30;;;11.10;99.90;;;;;;5009247;28;20037;-67
2022/02/17 07:09:02;;;;;;;0.43;0.43;;;11.00;99.90;;;;;;5010654;28;20044;-67
2022/02/17 07:11:28;;;;;;;0.30;0.30;;;10.90;99.90;;;;;;5001095;28;20066;-66
2022/02/17 07:13:54;;;;;;;3.00;0.30;;;10.80;99.90;;;;;;5004206;28;20041;-67
2022/02/17 07:16:19;;;;;;;0.30;0.30;;;10.70;99.90;;;;;;5007259;28;20046;-67
2022/02/17 07:18:46;;;;;;;0.30;0.30;;;10.70;99.90;;;;;;5009878;28;20103;-67
2022/02/17 07:21:12;;;;;;;0.32;0.32;;;10.60;99.90;;;;;;5006516;28;20026;-67
2022/02/17 07:23:37;;;;;;;0.30;0.30;;;10.60;99.90;;;;;;5002254;28;20026;-67
2022/02/17 07:26:03;;;;;;;0.30;0.30;;;10.60;99.90;;;;;;5013518;28;20044;-66
2022/02/17 07:28:29;;;;;;;0.38;0.38;;;10.60;99.90;;;;;;5013082;28;20030;-66
2022/02/17 07:30:55;;;;;;;0.30;0.30;;;10.60;99.90;;;;;;5010531;28;20198;-67
2022/02/17 07:33:21;;;;;;;0.38;0.30;;;10.60;99.90;;;;;;5012597;28;20425;-67
2022/02/17 07:35:48;;;;;;;0.40;0.40;;;10.50;99.90;;;;;;5011724;28;20034;-67
2022/02/17 07:38:13;;;;;;;0.70;0.40;;;10.60;99.90;;;;;;5011945;28;20745;-67
2022/02/17 07:40:41;;;;;;;0.30;0.30;;;10.60;99.90;;;;;;5011953;28;20034;-66
2022/02/17 07:43:08;;;;;;;0.30;0.30;;;10.60;99.90;;;;;;5011973;28;20029;-68
2022/02/17 07:45:37;;;;;;;0.45;0.20;;;10.60;99.90;;;;;;5011620;28;20432;-66
2022/02/17 07:48:03;;;;;;;0.30;0.30;;;10.60;99.90;;;;;;5011586;28;20657;-67
2022/02/17 07:50:29;;;;;;;0.30;0.30;;;10.60;99.90;;;;;;5011519;28;20042;-68
2022/02/17 07:52:55;;;;;;;0.30;0.30;;;10.70;99.90;;;;;;5010084;28;20117;-67
2022/02/17 07:55:21;;;;;;;0.40;0.40;;;10.70;99.90;;;;;;5010610;28;20101;-67
2022/02/17 07:57:47;;;;;;;0.55;0.55;;;10.70;99.90;;;;;;5011737;28;20041;-67
2022/02/17 08:00:13;;;;;;;0.30;0.30;;;10.80;99.90;;;;;;5011817;28;20030;-67
2022/02/17 08:02:42;;;;;;;0.20;0.20;;;10.90;99.90;;;;;;5009730;28;20053;-67
2022/02/17 08:05:18;;;;;;;0.28;0.28;;;11.00;99.90;;;;;;5009771;28;20060;-67
2022/02/17 08:07:44;;;;;;;0.45;0.30;;;10.90;99.90;;;;;;5017258;28;20034;-67
2022/02/17 08:10:09;;;;;;;0.30;0.30;;;11.00;99.90;;;;;;5012655;28;20038;-66
2022/02/17 08:12:40;;;;;;;0.20;0.20;;;11.10;99.90;;;;;;5009162;28;20034;-66
2022/02/17 08:15:06;;;;;;;0.30;0.30;;;11.00;99.90;;;;;;5008937;28;20053;-66
2022/02/17 08:17:32;;;;;;;0.68;0.40;;;11.00;99.90;;;;;;5011668;28;20033;-66
2022/02/17 08:19:57;;;;;;;1.38;0.50;;;10.80;99.90;;;;;;5011405;28;20429;-67
2022/02/17 08:22:23;;;;;;;1.83;0.50;;;10.70;99.90;;;;;;5009466;28;20100;-67
2022/02/17 08:24:50;;;;;;;1.00;0.50;;;10.70;99.90;;;;;;5011532;28;20034;-67
2022/02/17 08:27:16;;;;;;;0.95;0.50;;;10.60;99.90;;;;;;4997353;28;20094;-66
2022/02/17 08:29:45;;;;;;;0.40;0.40;;;10.50;99.90;;;;;;4993677;28;20034;-67
2022/02/17 08:32:14;;;;;;;0.32;0.30;;;10.50;99.90;;;;;;5009694;28;20788;-67
2022/02/17 08:34:43;;;;;;;0.75;0.50;;;10.50;99.90;;;;;;5011294;28;20033;-67
2022/02/17 08:37:10;;;;;;;0.47;0.30;;;10.40;99.90;;;;;;5010883;28;20056;-68
2022/02/17 08:39:39;;;;;;;0.35;0.35;;;10.40;99.90;;;;;;5012105;28;20037;-67
2022/02/17 08:42:05;;;;;;;0.22;0.22;;;10.40;99.90;;;;;;5028558;28;20110;-67
2022/02/17 08:44:31;;;;;;;0.30;0.30;;;10.40;99.90;;;;;;5009958;28;20041;-68
2022/02/17 08:46:57;;;;;;;0.50;0.32;;;10.30;99.90;;;;;;5007580;28;20038;-68
2022/02/17 08:49:27;;;;;;;0.43;0.40;;;10.30;99.90;;;;;;5024401;28;20054;-68
2022/02/17 08:52:00;;;;;;;0.30;0.30;;;10.30;99.90;;;;;;5011555;28;20034;-68
2022/02/17 08:54:26;;;;;;;0.40;0.40;;;10.30;99.90;;;;;;5009930;28;20040;-68
2022/02/17 08:56:52;;;;;;;1.38;0.50;;;10.20;99.90;;;;;;5006508;28;20034;-68
2022/02/17 08:59:18;;;;;;;0.40;0.32;;;10.10;99.90;;;;;;5002786;28;20403;-68
2022/02/17 09:01:43;;;;;;;0.63;0.30;;;10.10;99.90;;;;;;5007878;28;20091;-68
2022/02/17 09:04:09;;;;;;;0.45;0.45;;;10.10;99.90;;;;;;5008818;28;20049;-68
2022/02/17 09:06:35;;;;;;;0.57;0.40;;;10.10;99.90;;;;;;5026473;28;20041;-68
2022/02/17 09:09:02;;;;;;;0.25;0.25;;;10.10;99.90;;;;;;5009207;28;20072;-68
2022/02/17 09:11:31;;;;;;;0.40;0.40;;;10.10;99.90;;;;;;5012270;28;20039;-68
2022/02/17 09:13:57;;;;;;;2.05;0.90;;;10.10;99.90;;;;;;5011989;28;20608;-68
2022/02/17 09:16:23;;;;;;;0.60;0.60;;;10.10;99.90;;;;;;4999339;28;20412;-68
2022/02/17 09:18:49;;;;;;;0.90;0.50;;;10.10;99.90;;;;;;5006375;28;20045;-68
2022/02/17 09:21:16;;;;;;;0.88;0.50;;;10.10;99.90;;;;;;4998022;28;20030;-68
2022/02/17 09:23:41;;;;;;;0.65;0.50;;;10.10;99.90;;;;;;5010238;28;20041;-68
2022/02/17 09:26:08;;;;;;;3.15;0.70;;;10.10;99.90;;;;;;5011737;28;20025;-68
2022/02/17 09:28:35;;;;;;;1.55;0.90;;;10.10;99.90;;;;;;5006186;28;20048;-68
2022/02/17 09:31:01;;;;;;;2.93;1.00;;;10.10;99.90;;;;;;5008253;28;20065;-68
2022/02/17 09:33:27;;;;;;;1.45;0.70;;;10.00;99.90;;;;;;5011944;28;20480;-68
2022/02/17 09:35:55;;;;;;;4.10;0.95;;;10.00;99.90;;;;;;5025740;28;20088;-68
2022/02/17 09:38:24;;;;;;;0.77;0.63;;;10.00;99.90;;;;;;5010975;28;20037;-68
2022/02/17 09:40:50;;;;;;;0.70;0.70;;;10.00;99.90;;;;;;5006607;28;20034;-68
2022/02/17 09:43:17;;;;;;;1.02;0.65;;;10.00;99.90;;;;;;5011472;28;20104;-68
2022/02/17 09:45:50;;;;;;;1.15;1.05;;;10.00;99.90;;;;;;5022232;28;20054;-68
2022/02/17 09:48:16;;;;;;;7.32;1.10;;;10.00;99.90;;;;;;4996031;28;20040;-68
2022/02/17 09:50:42;;;;;;;4.95;1.10;;;10.00;99.90;;;;;;5011708;28;20353;-68
2022/02/17 09:53:08;;;;;;;1.67;0.77;;;10.00;99.90;;;;;;5004226;28;20025;-66
2022/02/17 09:55:34;;;;;;;0.70;0.70;;;10.00;99.90;;;;;;5007643;28;20032;-67
2022/02/17 09:58:01;;;;;;;6.30;1.30;;;10.00;99.90;;;;;;5010399;28;20061;-68
2022/02/17 10:00:27;;;;;;;2.45;1.05;;;10.00;99.90;;;;;;5010260;28;20048;-67
2022/02/17 10:02:53;;;;;;;3.35;0.77;;;10.10;99.90;;;;;;5010227;28;20052;-67
2022/02/17 10:05:19;;;;;;;4.22;0.98;;;10.00;99.90;;;;;;5006071;28;20412;-67
2022/02/17 10:07:45;;;;;;;6.00;1.10;;;10.00;99.90;;;;;;5009727;28;20088;-67
2022/02/17 10:10:14;;;;;;;3.03;1.40;;;10.00;99.90;;;;;;5003819;28;20039;-67
2022/02/17 10:12:59;;;;;;;4.63;1.65;;;10.00;99.90;;;;;;5012001;28;20025;-67
2022/02/17 10:15:43;;;;;;;3.63;1.17;;;10.00;99.90;;;;;;5006603;28;20038;-67
2022/02/17 10:18:16;;;;;;;2.45;1.73;;;10.00;99.90;;;;;;5011135;28;20100;-67
2022/02/17 10:21:06;;;;;;;2.55;0.73;;;10.00;99.90;;;;;;5004155;28;20103;-67
2022/02/17 10:23:46;;;;;;;3.00;1.00;;;10.10;99.90;;;;;;5010351;28;20049;-67
2022/02/17 10:26:16;;;;;;;3.17;1.00;;;10.20;99.90;;;;;;5010398;28;20038;-67
2022/02/17 10:28:55;;;;;;;3.08;1.50;;;10.20;99.90;;;;;;5010830;28;20026;-67
2022/02/17 10:31:35;;;;;;;4.43;1.10;;;10.20;99.90;;;;;;5007254;28;20427;-66
2022/02/17 10:34:06;;;;;;;3.65;1.10;;;10.20;99.90;;;;;;5009213;28;20045;-67
2022/02/17 10:36:49;;;;;;;3.00;1.42;;;10.30;99.90;;;;;;5012077;28;20032;-67
2022/02/17 10:39:19;;;;;;;3.67;1.00;;;10.30;99.90;;;;;;5013228;28;20034;-67
2022/02/17 10:41:57;;;;;;;2.38;0.90;;;10.30;99.90;;;;;;5013165;28;20143;-67
2022/02/17 10:44:45;;;;;;;1.95;1.15;;;10.40;99.90;;;;;;5028712;28;20120;-66
2022/02/17 10:47:26;;;;;;;4.30;1.00;;;10.40;99.90;;;;;;5025479;28;20107;-67
2022/02/17 10:49:54;;;;;;;4.88;1.35;;;10.50;99.90;;;;;;5013020;28;21745;-67
2022/02/17 10:52:34;;;;;;;3.78;0.95;;;10.50;99.90;;;;;;5010807;28;20045;-67
2022/02/17 10:55:18;;;;;;;3.13;0.73;;;10.40;99.90;;;;;;5012436;28;20066;-68
2022/02/17 10:57:45;;;;;;;4.43;1.10;;;10.40;99.90;;;;;;5012378;28;20461;-67
2022/02/17 11:00:16;;;;;;;4.10;1.40;;;10.50;99.90;;;;;;5015147;28;20057;-67
2022/02/17 11:02:44;;;;;;;3.65;1.00;;;10.60;99.90;;;;;;5011801;28;20038;-68
2022/02/17 11:05:14;;;;;;;2.72;1.00;;;10.70;99.90;;;;;;5012540;28;20112;-68
2022/02/17 11:07:41;;;;;;;3.15;1.10;;;10.80;99.90;;;;;;5014481;28;20469;-68
2022/02/17 11:10:10;;;;;;;1.90;1.00;;;10.90;99.90;;;;;;5013974;28;20093;-67
2022/02/17 11:12:45;;;;;;;4.18;1.20;;;11.00;99.90;;;;;;5008650;28;20025;-68
2022/02/17 11:15:10;;;;;;;1.83;1.30;;;10.90;99.90;;;;;;5010586;28;20400;-68
2022/02/17 11:17:39;;;;;;;3.47;1.10;;;11.10;99.90;;;;;;5012640;28;20042;-68
2022/02/17 11:20:11;;;;;;;3.42;1.00;;;11.10;99.90;;;;;;5008858;28;20037;-68
2022/02/17 11:22:42;;;;;;;6.20;1.35;;;11.00;99.90;;;;;;5009749;28;20045;-68
2022/02/17 11:25:12;;;;;;;3.10;1.38;;;11.00;99.40;;;;;;5010473;28;20180;-68
2022/02/17 11:27:58;;;;;;;1.58;0.90;;;11.00;93.90;;;;;;5026249;28;20053;-68
2022/02/17 11:30:28;;;;;;;5.13;1.42;;;10.80;97.50;;;;;;5012662;28;20049;-67
2022/02/17 11:33:24;;;;;;;3.05;1.00;;;10.90;98.30;;;;;;5011719;28;20033;-67
2022/02/17 11:36:16;;;;;;;6.35;1.58;;;10.80;95.40;;;;;;5011901;28;20080;-68
2022/02/17 11:38:47;;;;;;;3.70;1.20;;;10.80;97.80;;;;;;5010410;28;20072;-67
2022/02/17 11:41:31;;;;;;;8.15;1.40;;;10.90;98.50;;;;;;5012961;28;20025;-68
2022/02/17 11:44:31;;;;;;;2.47;0.90;;;11.10;96.40;;;;;;5013171;28;20069;-68
2022/02/17 11:47:03;;;;;;;3.70;0.85;;;11.30;99.70;;;;;;5004138;28;20041;-67
2022/02/17 11:49:51;;;;;;;;;;;;;;;;;;;;;
2022/02/17 11:52:31;;;;;;;3.25;1.00;;;11.30;99.90;;;;;;5011964;28;20044;-67
2022/02/17 11:55:18;;;;;;;6.25;1.10;;;11.50;90.80;;;;;;5025594;28;20036;-67
2022/02/17 11:57:44;;;;;;;6.35;2.30;;;11.40;91.00;;;;;;5006195;28;20030;-67
2022/02/17 12:00:36;;;;;;;6.78;1.27;;;11.50;92.70;;;;;;5025317;28;20042;-67
2022/02/17 12:03:03;;;;;;;6.97;1.38;;;11.30;89.20;;;;;;5008031;28;20074;-67
2022/02/17 12:05:32;;;;;;;5.68;1.60;;;11.20;94.40;;;;;;5011196;28;20037;-67
2022/02/17 12:08:22;;;;;;;3.50;1.00;;;11.00;90.90;;;;;;5012696;28;20040;-67
2022/02/17 12:10:48;;;;;;;6.50;1.20;;;11.00;93.30;;;;;;5009002;28;20048;-67
2022/02/17 12:13:25;;;;;;;5.47;1.98;;;10.90;93.90;;;;;;5011609;28;20034;-67
2022/02/17 12:15:51;;;;;;;6.68;1.75;;;10.90;92.70;;;;;;5010197;28;20042;-68
2022/02/17 12:18:17;;;;;;;4.70;1.13;;;10.90;93.80;;;;;;5026746;28;20038;-67
2022/02/17 12:20:43;;;;;;;4.97;1.55;;;10.90;92.30;;;;;;5013071;28;20377;-67
2022/02/17 12:23:08;;;;;;;7.97;1.40;;;11.00;92.20;;;;;;5011740;28;20022;-67
2022/02/17 12:25:44;;;;;;;6.90;1.30;;;11.20;85.40;;;;;;5009574;28;20740;-67
2022/02/17 12:28:15;;;;;;;6.80;1.25;;;11.10;92.20;;;;;;5006167;28;20054;-67
2022/02/17 12:30:59;;;;;;;4.30;1.45;;;11.20;85.00;;;;;;5011567;28;20048;-67
2022/02/17 12:33:26;;;;;;;6.85;1.73;;;11.20;85.80;;;;;;5011014;28;20038;-64
2022/02/17 12:36:10;;;;;;;5.80;2.00;;;11.10;82.70;;;;;;5010549;28;20038;-64
2022/02/17 12:38:35;;;;;;;3.78;1.40;;;11.10;79.60;;;;;;5011671;28;20106;-66
2022/02/17 12:41:10;;;;;;;7.05;1.67;;;11.10;75.40;;;;;;5011653;28;20109;-66
2022/02/17 12:43:38;;;;;;;3.90;1.05;;;11.10;79.60;;;;;;5011232;28;20026;-66
2022/02/17 12:46:12;;;;;;;6.75;1.35;;;11.00;76.90;;;;;;5007792;28;20041;-66
2022/02/17 12:48:39;;;;;;;5.68;1.77;;;11.00;78.20;;;;;;5026246;28;20057;-66
2022/02/17 12:51:06;;;;;;;2.50;1.10;;;11.10;68.70;;;;;;5011036;28;20117;-66
2022/02/17 12:53:46;;;;;;;5.38;1.40;;;11.10;74.30;;;;;;5026219;28;20473;-66